createdAt,value
2023-02-09T00:05:53.148Z,155.10
2023-02-09T00:16:02.360Z,174.20
2023-02-09T00:26:12.741Z,154.30
2023-02-09T00:46:26.867Z,114.50
2023-02-09T00:56:34.327Z,109.20
2023-02-09T01:06:41.938Z,117.70
2023-02-09T01:16:49.489Z,116.40
2023-02-09T01:26:56.712Z,117.90
2023-02-09T01:37:03.773Z,124.50
2023-02-09T01:47:14.548Z,127.00
2023-02-09T01:57:26.651Z,130.90
2023-02-09T02:07:40.084Z,130.40
2023-02-09T02:17:50.799Z,122.50
2023-02-09T02:27:59.982Z,132.90
2023-02-09T02:38:05.862Z,127.40
2023-02-09T02:48:17.365Z,138.80
2023-02-09T02:58:27.002Z,123.40
2023-02-09T03:08:48.258Z,130.00
2023-02-09T03:19:06.461Z,107.10
2023-02-09T03:29:15.203Z,92.70
2023-02-09T03:49:26.193Z,134.50
2023-02-09T03:59:33.790Z,125.00
2023-02-09T04:09:40.768Z,101.90
2023-02-09T04:19:48.437Z,135.00
2023-02-09T04:29:55.468Z,135.60
2023-02-09T04:40:02.690Z,123.40
2023-02-09T04:50:10.633Z,112.00
2023-02-09T05:00:18.301Z,121.10
2023-02-09T05:10:25.457Z,126.90
2023-02-09T05:20:32.426Z,165.00
2023-02-09T05:30:39.668Z,128.30
2023-02-09T05:40:47.354Z,120.90
2023-02-09T05:50:55.332Z,96.50
2023-02-09T06:01:02.893Z,126.70
2023-02-09T06:11:10.918Z,124.70
2023-02-09T06:21:19.026Z,110.80
2023-02-09T06:31:26.482Z,88.00
2023-02-09T06:41:33.941Z,102.00
2023-02-09T06:51:41.501Z,90.70
2023-02-09T07:01:52.184Z,90.10
2023-02-09T07:12:00.648Z,118.40
2023-02-09T07:22:08.037Z,98.90
2023-02-09T07:32:15.822Z,86.90
2023-02-09T07:42:23.459Z,91.50
2023-02-09T07:52:30.862Z,67.30
2023-02-09T08:02:40.186Z,79.70
2023-02-09T08:13:05.186Z,59.30
2023-02-09T08:23:17.701Z,48.30
2023-02-09T08:33:25.832Z,52.10
2023-02-09T08:43:34.085Z,46.00
2023-02-09T08:53:41.606Z,51.30
2023-02-09T09:03:49.917Z,46.70
2023-02-09T09:13:57.501Z,51.50
2023-02-09T09:24:05.236Z,41.60
2023-02-09T09:34:12.935Z,38.90
2023-02-09T09:44:23.740Z,39.50
2023-02-09T09:54:34.536Z,30.00
2023-02-09T10:04:41.853Z,34.50
2023-02-09T10:14:49.891Z,31.50
2023-02-09T10:24:57.812Z,34.90
2023-02-09T10:35:08.322Z,37.00
2023-02-09T10:45:21.564Z,40.10
2023-02-09T10:55:27.949Z,39.70
2023-02-09T11:05:34.067Z,40.20
2023-02-09T11:15:49.145Z,36.20
2023-02-09T11:25:54.808Z,41.20
2023-02-09T11:36:01.715Z,41.00
2023-02-09T11:46:13.835Z,36.30
2023-02-09T11:56:24.945Z,35.20
2023-02-09T12:06:36.045Z,27.60
2023-02-09T12:16:44.141Z,35.30
2023-02-09T12:26:58.288Z,32.10
2023-02-09T12:37:28.616Z,27.70
2023-02-09T12:47:47.383Z,28.40
2023-02-09T12:57:55.204Z,24.70
2023-02-09T13:08:04.998Z,28.10
2023-02-09T13:28:22.967Z,26.90
2023-02-09T13:38:34.574Z,28.50
2023-02-09T13:48:42.221Z,23.40
2023-02-09T13:58:50.740Z,29.70
2023-02-09T14:08:59.190Z,22.80
2023-02-09T14:29:34.055Z,27.10
2023-02-09T14:49:57.704Z,24.90
2023-02-09T15:00:14.614Z,31.80
2023-02-09T15:10:20.812Z,37.30
2023-02-09T15:20:30.838Z,26.30
2023-02-09T15:30:37.691Z,31.50
2023-02-09T15:41:04.328Z,38.80
2023-02-09T15:51:12.482Z,44.50
2023-02-09T16:01:20.741Z,67.40
2023-02-09T16:11:33.604Z,49.20
2023-02-09T16:21:40.519Z,67.80
2023-02-09T16:31:47.724Z,73.70
2023-02-09T16:41:55.477Z,63.30
2023-02-09T16:52:02.523Z,57.50
2023-02-09T17:02:32.614Z,61.40
2023-02-09T17:12:40.554Z,51.90
2023-02-09T17:22:48.126Z,51.30
2023-02-09T17:32:53.741Z,54.30
2023-02-09T17:43:00.110Z,59.90
2023-02-09T17:53:14.026Z,46.50
2023-02-09T18:03:23.493Z,54.80
2023-02-09T18:23:36.265Z,42.70
2023-02-09T18:33:44.928Z,43.40
2023-02-09T18:43:54.275Z,45.70
2023-02-09T19:04:06.834Z,39.60
2023-02-09T19:14:31.662Z,38.70
2023-02-09T19:24:39.154Z,41.40
2023-02-09T19:34:46.259Z,40.50
2023-02-09T19:44:55.465Z,33.00
2023-02-09T19:55:02.645Z,32.20
2023-02-09T20:05:10.819Z,33.70
2023-02-09T20:15:18.887Z,36.80
2023-02-09T20:25:26.058Z,34.00
2023-02-09T20:35:32.212Z,35.20
2023-02-09T20:45:52.884Z,30.20
2023-02-09T20:55:58.647Z,38.00
2023-02-09T21:16:15.645Z,38.20
2023-02-09T21:26:23.064Z,40.20
2023-02-09T21:36:29.200Z,74.70
2023-02-09T21:46:37.896Z,42.80
2023-02-09T21:56:46.413Z,38.60
2023-02-09T22:06:53.775Z,37.30
2023-02-09T22:17:01.062Z,39.40
2023-02-09T22:27:11.555Z,28.10
2023-02-09T22:37:18.959Z,39.30
2023-02-09T22:47:26.366Z,39.80
2023-02-09T22:57:33.515Z,38.70
2023-02-09T23:07:41.722Z,32.60
2023-02-09T23:17:48.942Z,40.70
2023-02-09T23:27:56.338Z,47.20
2023-02-09T23:38:03.426Z,40.80
2023-02-09T23:48:11.023Z,36.90
2023-02-09T23:58:18.321Z,45.30
